Time;durP1;ratioP1;P1;durP2;ratioP2;P2;SDS_P1;SDS_P2;PMS_P1;PMS_P2;Temp;Humidity;BMP_temperature;BMP_pressure;BME280_temperature;BME280_humidity;BME280_pressure;Samples;Min_cycle;Max_cycle;Signal;HPM_P1;HPM_P2
2022/09/19 00:00:40;;;;;;;33.45;5.90;;;;;;;;;;5087866;28;20048;-78
2022/09/19 00:03:06;;;;;;;32.30;4.72;;;;;;;;;;5088865;28;20455;-78
2022/09/19 00:05:33;;;;;;;27.65;4.65;;;;;;;;;;5086786;28;20079;-81
2022/09/19 00:07:59;;;;;;;41.53;6.65;;;;;;;;;;5088704;28;20404;-80
2022/09/19 00:10:26;;;;;;;25.40;4.75;;;;;;;;;;5086768;28;20054;-79
2022/09/19 00:12:55;;;;;;;27.88;5.05;;;;;;;;;;5088375;28;20216;-79
2022/09/19 00:15:22;;;;;;;29.80;4.90;;;;;;;;;;5088336;28;20217;-79
2022/09/19 00:17:49;;;;;;;28.48;4.50;;;;;;;;;;5088680;28;20101;-81
2022/09/19 00:20:15;;;;;;;29.20;4.95;;;;;;;;;;5086328;28;20044;-83
2022/09/19 00:24:45;;;;;;;24.65;4.70;;;;;;;;;;5088611;28;20052;-82
2022/09/19 00:25:28;;;;;;;24.15;4.05;;;;;;;;;;5087973;28;20563;-80
2022/09/19 00:27:54;;;;;;;18.90;3.75;;;;;;;;;;5088189;28;20380;-82
2022/09/19 00:30:20;;;;;;;23.60;4.50;;;;;;;;;;5086457;28;20150;-77
2022/09/19 00:32:47;;;;;;;;;;;;;;;;;;5088072;28;20044;-81
2022/09/19 00:35:13;;;;;;;35.33;5.50;;;;;;;;;;5089531;28;20010;-74
2022/09/19 00:37:40;;;;;;;42.03;6.63;;;;;;;;;;5092026;28;20455;-74
2022/09/19 00:40:06;;;;;;;38.35;5.93;;;;;;;;;;5091330;28;20181;-79
2022/09/19 00:42:34;;;;;;;;;;;;;;;;;;5092086;28;20043;-83
2022/09/19 00:45:02;;;;;;;35.55;6.88;;;;;;;;;;5092228;28;19943;-80
2022/09/19 00:47:39;;;;;;;27.27;5.03;;;;;;;;;;5090944;28;20048;-83
2022/09/19 00:50:11;;;;;;;34.38;5.30;;;;;;;;;;5090965;28;20458;-87
2022/09/19 00:52:41;;;;;;;31.25;4.82;;;;;;;;;;5091753;28;20044;-87
2022/09/19 00:55:07;;;;;;;31.33;5.25;;;;;;;;;;5090256;28;20087;-85
2022/09/19 00:57:54;;;;;;;41.97;5.90;;;;;;;;;;5091034;28;20539;-82
2022/09/19 01:00:20;;;;;;;45.42;6.63;;;;;;;;;;5088867;28;20443;-81
2022/09/19 01:02:48;;;;;;;37.55;5.82;;;;;;;;;;5091806;28;20044;-85
2022/09/19 01:05:16;;;;;;;35.03;6.28;;;;;;;;;;5091810;28;20113;-85
2022/09/19 01:07:54;;;;;;;31.00;5.97;;;;;;;;;;5091487;28;20102;-83
2022/09/19 01:10:29;;;;;;;38.20;5.68;;;;;;;;;;5105467;28;20044;-74
2022/09/19 01:13:11;;;;;;;41.92;6.15;;;;;;;;;;5091172;28;20441;-82
2022/09/19 01:15:41;;;;;;;42.33;7.30;;;;;;;;;;5091060;28;20040;-77
2022/09/19 01:18:08;;;;;;;36.80;6.38;;;;;;;;;;5091288;28;20485;-80
2022/09/19 01:20:57;;;;;;;28.60;5.22;;;;;;;;;;5090058;28;20142;-84
2022/09/19 01:23:42;;;;;;;39.45;6.22;;;;;;;;;;5089519;28;20134;-82
2022/09/19 01:26:15;;;;;;;42.63;6.05;;;;;;;;;;5091117;28;20122;-76
2022/09/19 01:28:46;;;;;;;30.17;4.88;;;;;;;;;;5088354;28;20242;-78
2022/09/19 01:31:18;;;;;;;42.60;6.65;;;;;;;;;;5089757;28;20094;-78
2022/09/19 01:34:02;;;;;;;43.85;6.60;;;;;;;;;;5090618;28;20475;-77
2022/09/19 01:36:32;;;;;;;33.30;6.50;;;;;;;;;;5089591;28;20124;-80
2022/09/19 01:38:59;;;;;;;46.03;6.50;;;;;;;;;;5090209;28;20044;-79
2022/09/19 01:41:25;;;;;;;39.05;6.28;;;;;;;;;;5090936;28;20121;-80
2022/09/19 01:43:51;;;;;;;39.75;4.97;;;;;;;;;;5091233;28;20095;-85
2022/09/19 01:46:41;;;;;;;31.52;6.32;;;;;;;;;;5088963;28;20047;-80
2022/09/19 01:49:26;;;;;;;35.92;5.47;;;;;;;;;;5084271;28;20122;-76
2022/09/19 01:51:58;;;;;;;34.00;5.15;;;;;;;;;;5090789;28;20064;-82
2022/09/19 01:54:43;;;;;;;36.45;6.35;;;;;;;;;;5089401;28;20044;-74
2022/09/19 01:57:12;;;;;;;28.33;5.25;;;;;;;;;;5090715;28;20513;-81
2022/09/19 01:59:38;;;;;;;34.08;5.32;;;;;;;;;;5090389;28;20348;-81
2022/09/19 02:02:28;;;;;;;24.83;5.30;;;;;;;;;;5089435;28;20047;-77
2022/09/19 02:05:04;;;;;;;27.75;5.05;;;;;;;;;;5090691;28;20128;-80
2022/09/19 02:07:43;;;;;;;35.88;5.72;;;;;;;;;;5089044;28;20494;-79
2022/09/19 02:10:29;;;;;;;30.33;5.13;;;;;;;;;;5090711;28;20119;-80
2022/09/19 02:12:57;;;;;;;33.72;5.63;;;;;;;;;;5078446;28;20052;-82
2022/09/19 02:15:29;;;;;;;33.30;5.40;;;;;;;;;;5088012;28;20048;-82
2022/09/19 02:17:58;;;;;;;35.58;5.90;;;;;;;;;;5090306;28;20040;-78
2022/09/19 02:20:27;;;;;;;52.45;7.47;;;;;;;;;;5089943;28;20199;-78
2022/09/19 02:22:55;;;;;;;45.75;7.03;;;;;;;;;;5090289;28;20055;-78
2022/09/19 02:25:23;;;;;;;40.00;5.80;;;;;;;;;;5088929;28;20164;-78
2022/09/19 02:27:52;;;;;;;48.40;5.82;;;;;;;;;;5089672;28;20123;-77
2022/09/19 02:30:22;;;;;;;32.78;5.15;;;;;;;;;;5089967;28;20048;-81
2022/09/19 02:32:49;;;;;;;52.22;7.10;;;;;;;;;;5087831;28;20441;-75
2022/09/19 02:35:36;;;;;;;39.50;6.57;;;;;;;;;;5088886;28;20054;-80
2022/09/19 02:38:10;;;;;;;30.10;4.97;;;;;;;;;;5088897;28;20330;-81
2022/09/19 02:40:44;;;;;;;29.10;5.65;;;;;;;;;;5088292;28;20083;-77
2022/09/19 02:43:17;;;;;;;39.63;5.63;;;;;;;;;;5088553;28;20044;-78
2022/09/19 02:45:51;;;;;;;37.75;6.13;;;;;;;;;;5090001;28;20453;-78
2022/09/19 02:48:27;;;;;;;38.28;5.32;;;;;;;;;;5089553;28;20478;-81
2022/09/19 02:51:03;;;;;;;29.05;4.60;;;;;;;;;;5093043;28;20040;-80
2022/09/19 02:53:35;;;;;;;30.33;4.85;;;;;;;;;;5093717;28;20056;-83
2022/09/19 02:56:03;;;;;;;25.63;4.93;;;;;;;;;;5089944;28;20117;-79
2022/09/19 02:58:50;;;;;;;33.03;5.18;;;;;;;;;;5087645;28;20032;-78
2022/09/19 03:01:19;;;;;;;27.33;4.37;;;;;;;;;;5089746;28;20098;-78
2022/09/19 03:06:43;;;;;;;25.15;4.70;;;;;;;;;;5088986;28;20071;-77
2022/09/19 03:09:11;;;;;;;19.15;3.67;;;;;;;;;;5086161;28;20124;-77
2022/09/19 03:11:39;;;;;;;22.65;3.83;;;;;;;;;;5089145;28;20055;-80
2022/09/19 03:14:06;;;;;;;31.23;5.00;;;;;;;;;;5089794;28;20040;-80
2022/09/19 03:16:34;;;;;;;28.75;5.10;;;;;;;;;;5089613;28;20052;-81
2022/09/19 03:19:10;;;;;;;35.65;5.78;;;;;;;;;;5088371;28;20065;-81
2022/09/19 03:21:37;;;;;;;27.90;5.25;;;;;;;;;;5089067;28;20044;-80
2022/09/19 03:24:04;;;;;;;35.53;5.80;;;;;;;;;;5089619;28;20047;-82
2022/09/19 03:26:34;;;;;;;27.20;5.35;;;;;;;;;;5089250;28;20048;-85
2022/09/19 03:29:01;;;;;;;41.65;6.20;;;;;;;;;;5088166;28;20330;-84
2022/09/19 03:31:27;;;;;;;27.60;4.53;;;;;;;;;;5089389;28;20048;-86
2022/09/19 03:33:55;;;;;;;28.80;5.13;;;;;;;;;;5088895;28;20181;-83
2022/09/19 03:36:22;;;;;;;36.00;6.15;;;;;;;;;;5089224;28;20464;-81
2022/09/19 03:38:48;;;;;;;37.80;5.47;;;;;;;;;;5087156;28;20051;-84
2022/09/19 03:41:14;;;;;;;;;;;;;;;;;;5087841;28;20044;-81
2022/09/19 03:43:42;;;;;;;31.70;6.28;;;;;;;;;;5088824;28;20292;-92
2022/09/19 03:46:10;;;;;;;35.00;6.32;;;;;;;;;;5087980;28;20401;-85
2022/09/19 03:48:37;;;;;;;45.30;6.80;;;;;;;;;;5089198;28;20047;-81
2022/09/19 03:51:03;;;;;;;43.78;7.28;;;;;;;;;;5066325;28;20099;-87
2022/09/19 03:53:30;;;;;;;43.10;6.05;;;;;;;;;;5069208;28;20056;-88
2022/09/19 03:55:56;;;;;;;42.75;7.35;;;;;;;;;;5068581;28;20116;-88
2022/09/19 03:58:23;;;;;;;44.85;7.70;;;;;;;;;;5069269;28;20052;-88
2022/09/19 04:00:50;;;;;;;45.90;7.65;;;;;;;;;;5075351;28;20212;-86
2022/09/19 04:03:18;;;;;;;35.20;6.40;;;;;;;;;;5089092;28;20048;-80
2022/09/19 04:05:44;;;;;;;41.47;5.65;;;;;;;;;;5088444;28;20052;-87
2022/09/19 04:08:11;;;;;;;40.83;6.45;;;;;;;;;;5088495;28;20090;-79
2022/09/19 04:10:37;;;;;;;29.15;5.78;;;;;;;;;;5091551;28;20143;-78
2022/09/19 04:13:03;;;;;;;;;;;;;;;;;;5091554;28;20462;-87
2022/09/19 04:15:29;;;;;;;35.60;6.30;;;;;;;;;;5092811;28;20003;-86
2022/09/19 04:17:55;;;;;;;29.23;4.57;;;;;;;;;;5091904;28;20047;-83
2022/09/19 04:20:22;;;;;;;26.70;4.82;;;;;;;;;;5091273;28;20133;-81
2022/09/19 04:22:49;;;;;;;25.67;6.03;;;;;;;;;;5090820;28;20135;-76
2022/09/19 04:25:15;;;;;;;;;;;;;;;;;;5090856;28;20044;-78
2022/09/19 04:27:41;;;;;;;25.25;5.30;;;;;;;;;;5091334;28;19999;-80
2022/09/19 04:30:07;;;;;;;27.15;4.72;;;;;;;;;;5091906;28;20128;-83
2022/09/19 04:32:34;;;;;;;27.60;4.93;;;;;;;;;;5092238;28;20087;-82
2022/09/19 04:35:00;;;;;;;31.42;4.78;;;;;;;;;;5091983;28;20059;-84
2022/09/19 04:37:27;;;;;;;34.20;4.55;;;;;;;;;;5091461;28;20112;-80
2022/09/19 04:39:53;;;;;;;35.42;5.47;;;;;;;;;;5092011;28;20051;-87
2022/09/19 04:42:19;;;;;;;33.13;5.00;;;;;;;;;;5092326;28;20048;-87
2022/09/19 04:44:45;;;;;;;37.30;5.97;;;;;;;;;;5091865;28;20123;-76
2022/09/19 04:47:14;;;;;;;41.75;5.93;;;;;;;;;;5086840;28;20044;-88
2022/09/19 04:49:40;;;;;;;37.55;6.78;;;;;;;;;;5070516;28;20052;-87
2022/09/19 04:52:07;;;;;;;42.45;6.30;;;;;;;;;;5071561;28;20066;-86
2022/09/19 04:54:37;;;;;;;40.25;6.82;;;;;;;;;;5072025;28;20053;-88
2022/09/19 04:57:07;;;;;;;48.15;7.72;;;;;;;;;;5072445;28;20049;-87
2022/09/19 04:59:36;;;;;;;64.50;9.10;;;;;;;;;;5092466;28;20130;-87
2022/09/19 05:02:05;;;;;;;51.75;9.77;;;;;;;;;;5091423;28;20381;-87
2022/09/19 05:04:32;;;;;;;49.08;8.32;;;;;;;;;;5092070;28;20467;-87
2022/09/19 05:06:58;;;;;;;44.25;7.03;;;;;;;;;;5092588;28;20044;-88
2022/09/19 05:09:24;;;;;;;46.95;7.40;;;;;;;;;;5095654;28;20475;-86
2022/09/19 05:11:50;;;;;;;41.22;6.68;;;;;;;;;;5090526;28;20337;-83
2022/09/19 05:14:17;;;;;;;33.25;5.93;;;;;;;;;;5091432;28;20116;-83
2022/09/19 05:16:43;;;;;;;34.40;5.88;;;;;;;;;;5089828;28;20154;-90
2022/09/19 05:19:09;;;;;;;32.40;5.85;;;;;;;;;;5083603;28;20044;-87
2022/09/19 05:21:36;;;;;;;23.85;4.60;;;;;;;;;;5070547;28;20064;-85
2022/09/19 05:24:03;;;;;;;34.88;5.53;;;;;;;;;;5070994;28;20048;-84
2022/09/19 05:26:29;;;;;;;27.00;4.75;;;;;;;;;;5071559;28;20044;-84
2022/09/19 05:28:55;;;;;;;33.10;5.47;;;;;;;;;;5070642;28;20052;-83
2022/09/19 05:31:21;;;;;;;36.28;5.78;;;;;;;;;;5089703;28;20048;-83
2022/09/19 05:33:47;;;;;;;33.67;6.03;;;;;;;;;;5091061;28;20063;-84
2022/09/19 05:36:14;;;;;;;29.95;4.97;;;;;;;;;;5089373;28;20148;-90
2022/09/19 05:38:41;;;;;;;28.27;4.95;;;;;;;;;;5091008;28;20182;-78
2022/09/19 05:41:07;;;;;;;47.40;6.95;;;;;;;;;;5089360;28;20051;-85
2022/09/19 05:43:34;;;;;;;27.23;4.90;;;;;;;;;;5089427;28;20124;-86
2022/09/19 05:46:00;;;;;;;;;;;;;;;;;;5090893;28;20044;-81
2022/09/19 05:48:27;;;;;;;47.08;7.13;;;;;;;;;;5090920;28;19942;-70
2022/09/19 05:50:53;;;;;;;40.85;6.07;;;;;;;;;;5087125;28;20484;-70
2022/09/19 05:56:05;;;;;;;45.30;6.25;;;;;;;;;;5089097;28;20051;-81
2022/09/19 05:58:35;;;;;;;37.08;5.40;;;;;;;;;;5089359;28;20074;-80
2022/09/19 06:01:03;;;;;;;36.75;5.70;;;;;;;;;;5090069;28;20048;-81
2022/09/19 06:03:29;;;;;;;48.40;6.25;;;;;;;;;;5086539;28;20055;-80
2022/09/19 06:05:55;;;;;;;40.28;6.50;;;;;;;;;;5086328;28;20062;-81
2022/09/19 06:08:22;;;;;;;30.52;6.30;;;;;;;;;;5088944;28;20433;-85
2022/09/19 06:10:49;;;;;;;33.45;5.93;;;;;;;;;;5088563;28;20044;-79
2022/09/19 06:13:17;;;;;;;41.80;6.20;;;;;;;;;;5088270;28;20059;-79
2022/09/19 06:15:43;;;;;;;33.47;6.07;;;;;;;;;;5089185;28;20052;-83
2022/09/19 06:18:09;;;;;;;27.98;5.70;;;;;;;;;;5088629;28;20131;-85
2022/09/19 06:20:36;;;;;;;36.75;6.60;;;;;;;;;;5089151;28;20048;-84
2022/09/19 06:23:03;;;;;;;31.00;4.45;;;;;;;;;;5090291;28;20103;-86
2022/09/19 06:25:30;;;;;;;24.35;4.75;;;;;;;;;;5090970;28;20169;-86
2022/09/19 06:27:57;;;;;;;28.27;5.50;;;;;;;;;;5096274;28;20133;-83
2022/09/19 06:30:24;;;;;;;26.73;4.82;;;;;;;;;;5094624;28;20055;-83
2022/09/19 06:32:51;;;;;;;25.98;5.60;;;;;;;;;;5091823;28;20112;-84
2022/09/19 06:35:20;;;;;;;29.20;5.22;;;;;;;;;;5087232;28;20671;-80
2022/09/19 06:37:47;;;;;;;27.80;4.90;;;;;;;;;;5088549;28;20140;-84
2022/09/19 06:40:13;;;;;;;27.88;4.63;;;;;;;;;;5089821;28;20461;-86
2022/09/19 06:42:40;;;;;;;28.63;4.97;;;;;;;;;;5090442;28;20059;-85
2022/09/19 06:45:07;;;;;;;29.55;5.28;;;;;;;;;;5084779;28;20104;-85
2022/09/19 06:47:33;;;;;;;28.83;6.20;;;;;;;;;;5088261;28;20118;-83
2022/09/19 06:50:00;;;;;;;39.47;5.57;;;;;;;;;;5089474;28;20059;-83
2022/09/19 06:52:26;;;;;;;28.60;5.55;;;;;;;;;;5090088;28;20040;-79
2022/09/19 06:54:53;;;;;;;31.55;4.85;;;;;;;;;;5088505;28;20043;-82
2022/09/19 06:57:19;;;;;;;31.27;5.30;;;;;;;;;;5087910;28;20044;-82
2022/09/19 06:59:45;;;;;;;35.67;5.40;;;;;;;;;;5087643;28;20487;-80
2022/09/19 07:02:11;;;;;;;31.52;5.72;;;;;;;;;;5103071;28;20066;-80
2022/09/19 07:04:38;;;;;;;24.80;5.10;;;;;;;;;;5083756;28;20044;-77
2022/09/19 07:07:05;;;;;;;;;;;;;;;;;;5079396;28;20047;-80
2022/09/19 07:09:31;;;;;;;37.13;5.75;;;;;;;;;;5089766;28;19924;-81
2022/09/19 07:11:57;;;;;;;33.75;5.85;;;;;;;;;;5089258;28;20048;-80
2022/09/19 07:14:26;;;;;;;35.10;6.40;;;;;;;;;;5088881;28;20542;-81
2022/09/19 07:16:52;;;;;;;31.88;5.72;;;;;;;;;;5086496;28;20064;-79
2022/09/19 07:19:18;;;;;;;26.35;4.80;;;;;;;;;;5088289;28;20036;-80
2022/09/19 07:21:45;;;;;;;30.23;5.10;;;;;;;;;;5088518;28;20112;-80
2022/09/19 07:24:11;;;;;;;32.35;5.20;;;;;;;;;;5086393;28;20118;-79
2022/09/19 07:26:37;;;;;;;29.17;5.05;;;;;;;;;;5080713;28;20069;-79
2022/09/19 07:29:03;;;;;;;33.03;4.90;;;;;;;;;;5090067;28;20048;-77
2022/09/19 07:31:32;;;;;;;31.38;5.28;;;;;;;;;;5090610;28;20464;-80
2022/09/19 07:33:58;;;;;;;35.13;5.75;;;;;;;;;;5089669;28;20063;-77
2022/09/19 07:36:26;;;;;;;31.90;5.88;;;;;;;;;;5085604;28;20051;-78
2022/09/19 07:38:52;;;;;;;34.88;5.45;;;;;;;;;;5089115;28;20135;-79
2022/09/19 07:41:18;;;;;;;;;;;;;;;;;;5089085;28;20048;-79
2022/09/19 07:43:45;;;;;;;26.83;4.55;;;;;;;;;;5089821;28;20316;-80
2022/09/19 07:46:15;;;;;;;;;;;;;;;;;;5091614;28;20048;-84
2022/09/19 07:48:44;;;;;;;27.38;4.72;;;;;;;;;;5095541;28;19928;-83
2022/09/19 07:51:11;;;;;;;26.27;4.70;;;;;;;;;;5095266;28;20039;-83
2022/09/19 07:53:37;;;;;;;29.80;5.63;;;;;;;;;;5096046;28;20064;-83
2022/09/19 07:56:04;;;;;;;29.25;5.13;;;;;;;;;;5094686;28;20068;-84
2022/09/19 07:58:30;;;;;;;36.80;6.47;;;;;;;;;;5093661;28;20052;-84
2022/09/19 08:01:02;;;;;;;31.90;5.93;;;;;;;;;;5095277;28;20040;-81
2022/09/19 08:03:28;;;;;;;29.92;5.43;;;;;;;;;;5094894;28;20066;-80
2022/09/19 08:05:55;;;;;;;30.67;5.28;;;;;;;;;;5095024;28;20452;-80
2022/09/19 08:08:22;;;;;;;32.22;5.35;;;;;;;;;;5093620;28;20084;-76
2022/09/19 08:10:50;;;;;;;27.88;5.20;;;;;;;;;;5092737;28;20326;-78
2022/09/19 08:13:21;;;;;;;32.63;6.13;;;;;;;;;;5093348;28;20104;-77
2022/09/19 08:15:50;;;;;;;36.45;6.07;;;;;;;;;;5095149;28;20056;-76
2022/09/19 08:18:18;;;;;;;31.70;4.78;;;;;;;;;;5092020;28;20032;-75
2022/09/19 08:20:45;;;;;;;33.35;6.55;;;;;;;;;;5094441;28;20070;-76
2022/09/19 08:23:13;;;;;;;34.17;6.75;;;;;;;;;;5094855;28;20040;-76
2022/09/19 08:25:42;;;;;;;34.17;5.75;;;;;;;;;;5095361;28;20048;-77
2022/09/19 08:28:09;;;;;;;31.67;5.78;;;;;;;;;;5093622;28;20158;-79
2022/09/19 08:30:35;;;;;;;26.73;5.05;;;;;;;;;;5091958;28;20406;-77
2022/09/19 08:33:02;;;;;;;36.22;6.00;;;;;;;;;;5093045;28;20054;-76
2022/09/19 08:35:30;;;;;;;23.75;4.90;;;;;;;;;;5093871;28;20468;-81
2022/09/19 08:37:58;;;;;;;27.13;4.80;;;;;;;;;;5094291;28;20069;-78
2022/09/19 08:40:35;;;;;;;28.55;5.78;;;;;;;;;;5092619;28;20113;-76
2022/09/19 08:43:04;;;;;;;22.95;4.45;;;;;;;;;;5094182;28;20112;-83
2022/09/19 08:45:34;;;;;;;23.08;4.05;;;;;;;;;;5094018;28;20047;-78
2022/09/19 08:48:02;;;;;;;24.60;4.20;;;;;;;;;;5093383;28;20120;-81
2022/09/19 08:50:30;;;;;;;28.52;5.53;;;;;;;;;;5092574;28;20040;-82
2022/09/19 08:52:58;;;;;;;31.52;5.00;;;;;;;;;;5094426;28;20048;-81
2022/09/19 08:55:26;;;;;;;23.75;4.47;;;;;;;;;;5091969;28;20113;-79
2022/09/19 08:57:58;;;;;;;27.30;4.43;;;;;;;;;;5089631;28;20043;-80
2022/09/19 09:00:24;;;;;;;23.38;5.00;;;;;;;;;;5089989;28;20465;-75
2022/09/19 09:02:57;;;;;;;22.40;4.30;;;;;;;;;;5088937;28;20044;-75
2022/09/19 09:05:38;;;;;;;25.48;5.00;;;;;;;;;;5072195;28;20052;-81
2022/09/19 09:08:30;;;;;;;17.92;3.42;;;;;;;;;;5089383;28;20040;-76
2022/09/19 09:11:03;;;;;;;22.30;4.82;;;;;;;;;;5090535;28;20052;-74
2022/09/19 09:13:44;;;;;;;23.13;4.50;;;;;;;;;;5090220;28;20085;-72
2022/09/19 09:16:10;;;;;;;26.55;4.45;;;;;;;;;;5090586;28;20106;-73
2022/09/19 09:18:57;;;;;;;20.67;4.13;;;;;;;;;;5085201;28;20155;-74
2022/09/19 09:21:42;;;;;;;26.50;5.40;;;;;;;;;;5086274;28;20176;-74
2022/09/19 09:24:13;;;;;;;29.55;6.03;;;;;;;;;;5088648;28;20391;-71
2022/09/19 09:26:44;;;;;;;23.00;4.35;;;;;;;;;;5086261;28;20424;-68
2022/09/19 09:29:17;;;;;;;23.92;4.63;;;;;;;;;;5085882;28;20135;-69
2022/09/19 09:31:49;;;;;;;28.05;4.90;;;;;;;;;;5086775;28;20052;-68
2022/09/19 09:34:18;;;;;;;23.95;4.63;;;;;;;;;;5088528;28;20070;-72
2022/09/19 09:36:50;;;;;;;24.83;3.88;;;;;;;;;;5088989;28;20059;-75
2022/09/19 09:39:25;;;;;;;20.52;4.18;;;;;;;;;;5089580;28;20160;-75
2022/09/19 09:41:56;;;;;;;16.98;3.75;;;;;;;;;;5083585;28;20044;-69
2022/09/19 09:44:43;;;;;;;28.08;4.13;;;;;;;;;;5077783;28;20055;-69
2022/09/19 09:47:21;;;;;;;19.50;3.85;;;;;;;;;;5087062;28;20459;-72
2022/09/19 09:49:48;;;;;;;23.33;4.20;;;;;;;;;;5089231;28;20068;-74
2022/09/19 09:52:20;;;;;;;20.40;4.22;;;;;;;;;;5087156;28;20058;-74
2022/09/19 09:57:36;;;;;;;46.47;6.68;;;;;;;;;;5089411;28;20156;-75
2022/09/19 10:05:43;;;;;;;27.27;5.45;;;;;;;;;;5105109;28;20071;-74
2022/09/19 10:08:18;;;;;;;36.10;5.70;;;;;;;;;;5087123;28;20140;-74
2022/09/19 10:10:45;;;;;;;39.72;5.72;;;;;;;;;;5086980;28;20048;-74
2022/09/19 10:13:27;;;;;;;27.98;4.82;;;;;;;;;;5086639;28;20383;-75
2022/09/19 10:16:02;;;;;;;40.35;5.93;;;;;;;;;;5088561;28;20052;-75
2022/09/19 10:18:31;;;;;;;31.83;5.72;;;;;;;;;;5087998;28;20442;-71
2022/09/19 10:20:57;;;;;;;31.45;6.15;;;;;;;;;;5084770;28;20052;-76
2022/09/19 10:23:24;;;;;;;24.70;5.13;;;;;;;;;;5089757;28;20059;-76
2022/09/19 10:25:52;;;;;;;33.30;5.05;;;;;;;;;;5087824;28;20132;-73
2022/09/19 10:28:27;;;;;;;28.50;5.43;;;;;;;;;;5081502;28;20448;-73
2022/09/19 10:30:57;;;;;;;42.83;6.68;;;;;;;;;;5087053;28;20040;-74
2022/09/19 10:33:25;;;;;;;31.77;5.00;;;;;;;;;;5086249;28;20071;-69
2022/09/19 10:35:58;;;;;;;25.00;4.75;;;;;;;;;;5088825;28;20095;-73
2022/09/19 10:38:26;;;;;;;21.83;4.72;;;;;;;;;;5087857;28;20123;-72
2022/09/19 10:40:59;;;;;;;31.45;4.53;;;;;;;;;;5087071;28;20083;-70
2022/09/19 10:43:33;;;;;;;21.65;3.88;;;;;;;;;;5087092;28;20131;-77
2022/09/19 10:46:06;;;;;;;16.60;3.70;;;;;;;;;;5085097;28;20043;-72
2022/09/19 10:48:33;;;;;;;16.00;3.72;;;;;;;;;;5083640;28;20092;-69
2022/09/19 10:51:01;;;;;;;16.95;4.03;;;;;;;;;;5084993;28;20441;-72
2022/09/19 10:53:32;;;;;;;22.65;4.43;;;;;;;;;;5089170;28;20107;-73
2022/09/19 10:56:07;;;;;;;18.55;3.38;;;;;;;;;;5087618;28;20058;-74
2022/09/19 10:58:39;;;;;;;23.15;4.03;;;;;;;;;;5086138;28;20040;-73
2022/09/19 11:01:08;;;;;;;26.70;4.32;;;;;;;;;;5088038;28;20081;-72
2022/09/19 11:03:39;;;;;;;20.98;3.80;;;;;;;;;;5087238;28;20117;-71
2022/09/19 11:06:16;;;;;;;23.50;4.30;;;;;;;;;;5085384;28;20386;-74
2022/09/19 11:08:47;;;;;;;21.95;4.47;;;;;;;;;;5084928;28;20055;-71
2022/09/19 11:11:25;;;;;;;24.67;4.47;;;;;;;;;;5087794;28;20067;-67
2022/09/19 11:14:06;;;;;;;20.80;4.32;;;;;;;;;;5085327;28;20468;-69
2022/09/19 11:16:37;;;;;;;24.20;5.03;;;;;;;;;;5085005;28;20051;-71
2022/09/19 11:19:15;;;;;;;22.38;4.15;;;;;;;;;;5084812;28;20043;-71
2022/09/19 11:22:10;;;;;;;21.73;3.90;;;;;;;;;;5087684;28;20062;-74
2022/09/19 11:24:36;;;;;;;19.98;3.80;;;;;;;;;;5078420;28;20131;-66
2022/09/19 11:27:21;;;;;;;19.73;3.72;;;;;;;;;;5086520;28;20079;-71
2022/09/19 11:30:10;;;;;;;20.98;4.05;;;;;;;;;;5086356;28;20221;-69
2022/09/19 11:32:36;;;;;;;22.58;4.05;;;;;;;;;;5086594;28;20052;-67
2022/09/19 11:35:23;;;;;;;18.05;3.88;;;;;;;;;;5084979;28;20060;-70
2022/09/19 11:37:56;;;;;;;31.67;4.22;;;;;;;;;;5085301;28;20459;-70
2022/09/19 11:40:30;;;;;;;21.75;4.00;;;;;;;;;;5085560;28;20426;-67
2022/09/19 11:42:59;;;;;;;18.85;4.00;;;;;;;;;;5082009;28;20558;-66
2022/09/19 11:45:28;;;;;;;20.60;3.42;;;;;;;;;;5087388;28;20130;-66
2022/09/19 11:48:10;;;;;;;22.05;4.13;;;;;;;;;;5084478;28;20055;-68
2022/09/19 11:50:42;;;;;;;19.15;3.85;;;;;;;;;;5085015;28;20086;-67
2022/09/19 11:53:21;;;;;;;17.33;4.25;;;;;;;;;;5084635;28;20043;-65
2022/09/19 11:55:55;;;;;;;17.63;3.78;;;;;;;;;;5085966;28;20054;-68
2022/09/19 11:58:44;;;;;;;17.65;3.28;;;;;;;;;;5081018;28;20063;-68
2022/09/19 12:01:26;;;;;;;23.90;4.40;;;;;;;;;;5084141;28;20056;-68
2022/09/19 12:04:11;;;;;;;15.90;3.40;;;;;;;;;;5085018;28;20134;-67
2022/09/19 12:06:53;;;;;;;18.08;3.78;;;;;;;;;;5086594;28;20110;-69
2022/09/19 12:09:25;;;;;;;19.15;4.07;;;;;;;;;;5093841;28;20092;-68
2022/09/19 12:11:55;;;;;;;25.95;4.45;;;;;;;;;;5083148;28;20221;-65
2022/09/19 12:14:24;;;;;;;28.40;4.38;;;;;;;;;;5086395;28;20472;-66
2022/09/19 12:17:17;;;;;;;19.63;4.15;;;;;;;;;;5085058;28;20059;-66
2022/09/19 12:19:48;;;;;;;24.48;4.28;;;;;;;;;;5083041;28;20073;-65
2022/09/19 12:22:26;;;;;;;23.85;3.83;;;;;;;;;;5087211;28;20047;-66
2022/09/19 12:25:05;;;;;;;21.35;4.43;;;;;;;;;;5084244;28;20047;-66
2022/09/19 12:27:31;;;;;;;21.40;3.95;;;;;;;;;;5083752;28;20056;-66
2022/09/19 12:29:58;;;;;;;18.08;4.10;;;;;;;;;;5085511;28;20072;-78
2022/09/19 12:32:32;;;;;;;20.95;4.32;;;;;;;;;;5089422;28;20036;-68
2022/09/19 12:35:05;;;;;;;16.17;3.45;;;;;;;;;;5089901;28;20171;-68
2022/09/19 12:37:37;;;;;;;19.85;3.63;;;;;;;;;;5091421;28;20409;-68
2022/09/19 12:40:28;;;;;;;19.88;3.92;;;;;;;;;;5091444;28;20149;-69
2022/09/19 12:43:01;;;;;;;17.88;3.75;;;;;;;;;;5085872;28;20139;-68
2022/09/19 12:45:33;;;;;;;22.35;3.70;;;;;;;;;;5088017;28;20182;-69
2022/09/19 12:48:00;;;;;;;16.83;3.60;;;;;;;;;;5087693;28;20048;-67
2022/09/19 12:50:32;;;;;;;16.17;3.25;;;;;;;;;;5068954;28;20055;-69
2022/09/19 12:53:04;;;;;;;18.48;3.97;;;;;;;;;;5076869;28;20066;-67
2022/09/19 12:55:38;;;;;;;17.48;3.70;;;;;;;;;;5105715;28;20125;-68
2022/09/19 12:58:16;;;;;;;18.48;3.30;;;;;;;;;;5090020;28;20118;-69
2022/09/19 13:00:44;;;;;;;20.90;4.30;;;;;;;;;;5081550;28;20149;-73
2022/09/19 13:03:21;;;;;;;24.67;4.05;;;;;;;;;;5088681;28;20056;-70
2022/09/19 13:05:51;;;;;;;23.70;3.88;;;;;;;;;;5088582;28;20047;-72
2022/09/19 13:08:24;;;;;;;20.33;4.00;;;;;;;;;;5090721;28;20048;-70
2022/09/19 13:10:55;;;;;;;22.23;3.88;;;;;;;;;;5085754;28;20048;-80
2022/09/19 13:13:25;;;;;;;24.23;4.18;;;;;;;;;;5086811;28;20147;-67
2022/09/19 13:15:56;;;;;;;16.75;3.15;;;;;;;;;;5089538;28;20120;-71
2022/09/19 13:24:11;;;;;;;19.35;3.65;;;;;;;;;;5088785;28;20116;-71
2022/09/19 13:26:37;;;;;;;15.02;3.80;;;;;;;;;;5090334;28;20056;-67
2022/09/19 13:29:26;;;;;;;16.83;3.03;;;;;;;;;;5078241;28;20044;-68
2022/09/19 13:31:55;;;;;;;17.33;3.15;;;;;;;;;;5084498;28;20203;-66
2022/09/19 13:34:33;;;;;;;17.45;3.33;;;;;;;;;;5076179;28;20150;-69
2022/09/19 13:37:04;;;;;;;16.25;3.42;;;;;;;;;;5079286;28;20052;-70
2022/09/19 13:39:50;;;;;;;12.73;3.20;;;;;;;;;;5078009;28;20051;-69
2022/09/19 13:42:23;;;;;;;15.98;2.97;;;;;;;;;;5079064;28;20112;-67
2022/09/19 13:44:57;;;;;;;21.55;3.72;;;;;;;;;;5084128;28;20072;-74
2022/09/19 13:47:26;;;;;;;14.15;3.28;;;;;;;;;;5085350;28;20071;-73
2022/09/19 13:50:04;;;;;;;16.90;3.55;;;;;;;;;;5084947;28;20056;-71
2022/09/19 13:52:35;;;;;;;20.98;3.95;;;;;;;;;;5084154;28;20411;-79
2022/09/19 13:55:17;;;;;;;18.88;3.80;;;;;;;;;;5077327;28;20133;-81
2022/09/19 13:57:43;;;;;;;22.25;4.13;;;;;;;;;;5074680;28;20048;-80
2022/09/19 14:00:13;;;;;;;23.42;4.38;;;;;;;;;;5084933;28;20117;-78
2022/09/19 14:02:42;;;;;;;19.08;3.50;;;;;;;;;;5088321;28;20052;-79
2022/09/19 14:05:11;;;;;;;17.25;3.90;;;;;;;;;;5078812;28;20044;-78
2022/09/19 14:07:43;;;;;;;19.08;4.22;;;;;;;;;;5069066;28;20063;-75
2022/09/19 14:10:30;;;;;;;21.05;4.68;;;;;;;;;;5068356;28;20143;-77
2022/09/19 14:12:59;;;;;;;19.48;4.35;;;;;;;;;;5087476;28;20395;-77
2022/09/19 14:15:44;;;;;;;24.92;4.78;;;;;;;;;;5071942;28;20518;-78
2022/09/19 14:18:10;;;;;;;21.85;4.20;;;;;;;;;;5071182;28;20397;-78
2022/09/19 14:20:48;;;;;;;24.38;4.65;;;;;;;;;;5077636;28;20197;-72
2022/09/19 14:23:15;;;;;;;20.92;4.15;;;;;;;;;;5082869;28;20188;-70
2022/09/19 14:25:43;;;;;;;19.67;3.42;;;;;;;;;;5069197;28;20495;-71
2022/09/19 14:28:27;;;;;;;16.48;3.60;;;;;;;;;;5081911;28;20044;-68
2022/09/19 14:31:04;;;;;;;19.20;3.53;;;;;;;;;;5084079;28;20441;-68
2022/09/19 14:33:32;;;;;;;16.92;3.33;;;;;;;;;;5065029;28;20059;-73
2022/09/19 14:36:09;;;;;;;18.95;3.30;;;;;;;;;;5085813;28;20185;-69
2022/09/19 14:38:55;;;;;;;16.88;3.33;;;;;;;;;;5068028;28;20489;-67
2022/09/19 14:41:21;;;;;;;21.80;3.65;;;;;;;;;;5076282;28;20044;-69
2022/09/19 14:43:53;;;;;;;16.52;3.00;;;;;;;;;;5068020;28;20053;-73
2022/09/19 14:46:41;;;;;;;16.40;3.42;;;;;;;;;;5055950;28;20335;-67
2022/09/19 14:49:07;;;;;;;;;;;;;;;;;;5069803;28;20070;-70
2022/09/19 14:51:39;;;;;;;17.02;2.75;;;;;;;;;;5088432;28;20314;-66
2022/09/19 14:54:10;;;;;;;18.42;3.08;;;;;;;;;;5087165;28;20361;-67
2022/09/19 14:56:37;;;;;;;15.98;3.42;;;;;;;;;;5081748;28;20041;-66
2022/09/19 14:59:17;;;;;;;22.13;3.60;;;;;;;;;;5066858;28;20062;-70
2022/09/19 15:01:43;;;;;;;17.92;3.05;;;;;;;;;;5067418;28;20411;-76
2022/09/19 15:04:16;;;;;;;16.30;3.40;;;;;;;;;;5072450;28;20128;-71
2022/09/19 15:06:44;;;;;;;18.35;3.72;;;;;;;;;;5081767;28;20147;-68
2022/09/19 15:09:30;;;;;;;20.65;3.33;;;;;;;;;;5087643;28;20522;-67
2022/09/19 15:11:58;;;;;;;16.15;3.22;;;;;;;;;;5082610;28;20070;-70
2022/09/19 15:14:26;;;;;;;20.38;4.03;;;;;;;;;;5069781;28;20056;-69